Aviation Digital Data Service (ADDS)

Output produced by METARs form (1014 UTC 25 January 2015)
found at http://www.aviationweather.gov/adds/metars/
 
KFIG 250954Z AUTO 25012G17KT 7SM OVC009 00/M02 A2966 RMK AO2 SLP060 T00001017
KFIG 250854Z AUTO 23010G17KT 7SM OVC009 00/M02 A2964 RMK AO2 SLP054 60000 I1000 I3000 T00001017 53015
KFIG 250754Z AUTO 24008G17KT 7SM OVC008 M01/M02 A2962 RMK AO2 UPB47E50SNB14E47 SLP044 P0000 T10061022
KFIG 250654Z AUTO 23009KT 7SM OVC006 M01/M02 A2960 RMK AO2 UPE02 SLP039 P0000 T10111022
KFIG 250554Z AUTO 24009KT 6SM UP BR OVC007 M01/M03 A2960 RMK AO2 UPB53SNE15 SLP037 P0000 60000 I6002 T10111028 11011 21033 51009
KFIG 250524Z AUTO 24009KT 8SM OVC009 M02/M03 A2958 RMK AO2 SNE15 P0000 T10171028
KFIG 250454Z AUTO 24009KT 4SM -SN BR OVC010 M02/M03 A2959 RMK AO2 FZRAB0359E14SNB14 CIG 007V013 SLP034 P0000 I1000 T10171033 400061033
KFIG 250444Z AUTO 24009KT 4SM -SN BR OVC010 M02/M03 A2959 RMK AO2 FZRAB0359E14SNB14 CIG 006V013 P0000 I1000 T10171033
KFIG 250420Z AUTO 24010KT 4SM -SN BR OVC007 M02/M03 A2959 RMK AO2 FZRAB0359E14SNB14 CIG 006V010 P0000 I1000 T10171033
KFIG 250405Z AUTO 24010KT 4SM -FZRA BR OVC007 M02/M03 A2959 RMK AO2 FZRAB0359 CIG 006V012 P0000 I1000 T10221033
KFIG 250354Z AUTO 25013G16KT 5SM BR OVC007 M02/M03 A2958 RMK AO2 UPB35E41FZRAB41E52 SLP034 P0000 I1001 T10221033
KFIG 250347Z AUTO 25011KT 5SM -FZRA BR OVC007 M02/M03 A2958 RMK AO2 UPB35E41FZRAB41 P0000 I1001 T10221033
KFIG 250254Z AUTO 25009G17KT 7SM OVC009 M02/M04 A2957 RMK AO2 FZRAE0158SNB0158E0159 CIG 007V012 SLP029 P0000 60000 I1000 I3001 T10221039 51004
KFIG 250204Z AUTO 25009G16KT 7SM OVC010 M03/M04 A2956 RMK AO2 FZRAE0158SNB0158E0159 P0000 I1000 T10281044
KFIG 250154Z AUTO 26011G16KT 5SM -FZRA BR OVC010 M03/M04 A2956 RMK AO2 FZRAB47 CIG 008V012 SLP027 P0000 I1001 T10281044
KFIG 250054Z AUTO 25009KT 6SM BR OVC010 M03/M05 A2956 RMK AO2 SLP026 I1000 T10331050
KFIG 250038Z AUTO 25007KT 6SM BR OVC010 M03/M05 A2956 RMK AO2 I1000 T10331050
KFIG 250025Z AUTO 26008G16KT 6SM BR OVC009 M03/M05 A2956 RMK AO2 T10331050
KFIG 242354Z AUTO 25010G15KT 7SM OVC010 M03/M06 A2956 RMK AO2 SLP026 T10331056 10006 21033 53020
KFIG 242254Z AUTO 25008G18KT 8SM OVC013 M03/M06 A2953 RMK AO2 SLP016 T10331061
KFIG 242247Z AUTO 25010G18KT 8SM OVC013 M03/M06 A2953 RMK AO2 T10331061
KFIG 242154Z AUTO 26010KT 10SM OVC018 M03/M07 A2950 RMK AO2 SLP007 T10281067
KFIG 242054Z AUTO 26012G17KT 10SM OVC023 M02/M07 A2949 RMK AO2 SLP003 T10221067 53003
KFIG 242024Z AUTO 27010KT 240V310 10SM BKN024 BKN042 OVC110 M02/M07 A2948 RMK AO2 T10171072
KFIG 241954Z AUTO 27009KT 10SM FEW041 OVC110 M01/M07 A2948 RMK AO2 SLP997 T10111067
KFIG 241854Z AUTO 27012KT 9SM FEW120 00/M06 A2947 RMK AO2 SLP996 T00001061
KFIG 241754Z AUTO 26007G15KT 10SM CLR 00/M06 A2948 RMK AO2 SLP999 60000 T00001056 10006 21017 56023
KFIG 241654Z AUTO 26009KT 10SM CLR 00/M05 A2950 RMK AO2 SLP005 T00001050
KFIG 241554Z AUTO 31010KT 10SM CLR M01/M06 A2953 RMK AO2 SLP015 T10111056
KFIG 241454Z AUTO 30005KT 8SM SCT014 M01/M03 A2955 RMK AO2 SLP023 60000 T10111033 58011
KFIG 241429Z AUTO 28004KT 4SM BR FEW002 BKN014 OVC021 M01/M02 A2956 RMK AO2 T10061017
KFIG 241421Z AUTO 00000KT 3SM BR FEW002 SCT014 OVC019 M01/M02 A2957 RMK AO2 T10111017
KFIG 241401Z AUTO 00000KT 1 1/4SM BR SCT001 OVC017 M01/M02 A2957 RMK AO2 T10111022
KFIG 241354Z AUTO 00000KT 1 3/4SM BR OVC015 M01/M02 A2957 RMK AO2 SLP028 T10111017
KFIG 241347Z AUTO 17003KT 2 1/2SM BR OVC015 M01/M02 A2957 RMK AO2 T10111017
KFIG 241337Z AUTO 00000KT 2 1/2SM BR OVC013 M02/M02 A2957 RMK AO2 T10171017
KFIG 241305Z AUTO 19003KT 1 3/4SM BR OVC010 M02/M02 A2958 RMK AO2 T10171022
KFIG 241254Z AUTO 20003KT 2SM BR OVC009 M02/M02 A2958 RMK AO2 SNB19E32 SLP034 P0000 T10171022
KFIG 241216Z AUTO 00000KT 2 1/2SM BR OVC006 M02/M03 A2958 RMK AO2 T10171028
KFIG 241154Z AUTO 00000KT 3SM BR OVC007 M02/M02 A2959 RMK AO2 SLP035 60010 70017 T10171022 11011 21022 56026
KFIG 241146Z AUTO 00000KT 2SM BR OVC007 M02/M02 A2960 RMK AO2 T10171022
KFIG 241110Z AUTO 00000KT 6SM BR BKN006 OVC010 M01/M02 A2961 RMK AO2 CIG 003V009 T10111022
KFIG 241054Z AUTO 34004KT 4SM BR OVC004 M02/M02 A2961 RMK AO2 SNE29 CIG 002V007 SLP042 P0000 T10171022
KFIG 241045Z AUTO 33005KT 3SM BR BKN004 OVC008 M02/M03 A2961 RMK AO2 SNE29 P0000 T10171028
KFIG 241039Z AUTO 33005KT 2SM BR OVC006 M02/M03 A2961 RMK AO2 SNE29 P0000 T10221028
KFIG 241010Z AUTO 01003KT 3/4SM -SN BR SCT002 BKN006 OVC015 M02/M03 A2962 RMK AO2 P0000 T10221028
KFIG 240959Z AUTO 35004KT 1 3/4SM -SN BR BKN002 BKN032 OVC070 M02/M03 A2963 RMK AO2 P0000 T10171028
KFIG 240956Z AUTO 36004KT 2 1/2SM -SN BR BKN003 BKN044 OVC070 M02/M03 A2963 RMK AO2 P0000 T10171028
KFIG 240954Z AUTO 35003KT 3SM -SN BR SCT003 BKN044 OVC070 M02/M03 A2963 RMK AO2 SLP047 P0001 T10171028
KFIG 240950Z AUTO 00000KT 3SM -SN BR FEW003 BKN042 OVC070 M02/M03 A2962 RMK AO2 P0001
KFIG 240931Z AUTO VRB03KT 2SM -SN BR OVC031 M02/M02 A2964 RMK AO2 P0001 T10171022
KFIG 240854Z AUTO 00000KT 1 1/2SM -SN BR OVC027 M02/M02 A2967 RMK AO2 SLP061 P0001 60009 T10171022 58034
KFIG 240812Z AUTO 02004KT 1 1/2SM -SN BR SCT009 SCT014 OVC028 M02/M02 A2969 RMK AO2 P0000 T10171022
KFIG 240754Z AUTO 02004KT 1 1/4SM -SN BR OVC009 M02/M03 A2970 RMK AO2 SLP073 P0003 T10221028
KFIG 240741Z AUTO 01005KT 1SM -SN BR BKN007 OVC016 M02/M03 A2971 RMK AO2 P0003 T10221028
KFIG 240732Z AUTO 36006KT 3/4SM -SN BR SCT009 OVC016 M02/M03 A2971 RMK AO2 P0002 T10221028
KFIG 240715Z AUTO 01003KT 1SM -SN BR FEW009 BKN015 OVC028 M02/M03 A2973 RMK AO2 P0001 T10221033
KFIG 240706Z AUTO 00000KT 1SM -SN BR VV010 M02/M03 A2974 RMK AO2 P0001 T10221028
KFIG 240654Z AUTO 00000KT 3/4SM -SN BR VV010 M02/M03 A2974 RMK AO2 SLP088 P0005 T10221028
KFIG 240647Z AUTO 01003KT 3/4SM -SN BR VV010 M02/M03 A2974 RMK AO2 P0005 T10221028
KFIG 240608Z AUTO 00000KT 1SM -SN BR FEW006 OVC010 M02/M03 A2975 RMK AO2 P0002 T10221028
KFIG 240554Z AUTO 00000KT 3/4SM -SN BR VV009 M02/M03 A2977 RMK AO2 SLP099 P0003 60007 T10221033 11011 21022 56034
KFIG 240533Z AUTO 00000KT 3/4SM -SN BR BKN007 OVC017 M02/M03 A2978 RMK AO2 P0002 T10221033
KFIG 240522Z AUTO 01003KT 1 1/4SM -SN BR SCT007 OVC015 M02/M03 A2978 RMK AO2 P0001 T10221028
KFIG 240501Z AUTO 01003KT 1SM -SN BR FEW007 OVC011 M02/M03 A2980 RMK AO2 P0000 T10221033
KFIG 240454Z AUTO 01004KT 3/4SM -SN BR VV009 M02/M03 A2980 RMK AO2 SLP110 P0004 T10221033 400061044
KFIG 240444Z AUTO 35004KT 1SM -SN BR VV009 M02/M03 A2982 RMK AO2 P0003 T10221033
KFIG 240431Z AUTO 36004KT 1SM -SN BR FEW008 OVC012 M02/M03 A2982 RMK AO2 P0002 T10221033
KFIG 240425Z AUTO 36003KT 3/4SM -SN BR VV013 M02/M04 A2983 RMK AO2 P0002 T10221039
KFIG 240412Z AUTO 00000KT 1 1/2SM -SN OVC022 M02/M04 A2984 RMK AO2 P0000 T10171044
KFIG 240405Z AUTO 00000KT 1 3/4SM -SN OVC030 M02/M04 A2985 RMK AO2 P0000 T10171044
KFIG 240354Z AUTO 00000KT 7SM -SN OVC041 M02/M04 A2985 RMK AO2 SNB53 SLP125 P0000 T10171044
KFIG 240254Z AUTO 35005KT 10SM BKN070 OVC085 M02/M05 A2988 RMK AO2 SLP136 T10171050 58028
KFIG 240154Z AUTO 00000KT 10SM OVC100 M02/M05 A2990 RMK AO2 SLP144 T10171050
KFIG 240054Z AUTO 36003KT 10SM BKN110 M02/M06 A2994 RMK AO2 SLP158 T10171056
KFIG 232354Z AUTO 04003KT 10SM CLR M02/M04 A2996 RMK AO2 SLP165 T10171044 10006 21017 58023
KFIG 232254Z AUTO 03003KT 10SM CLR M01/M05 A2998 RMK AO2 SLP172 T10111050